Time;durP1;ratioP1;P1;durP2;ratioP2;P2;SDS_P1;SDS_P2;PMS_P1;PMS_P2;Temp;Humidity;BMP_temperature;BMP_pressure;BME280_temperature;BME280_humidity;BME280_pressure;Samples;Min_cycle;Max_cycle;Signal;HPM_P1;HPM_P2
2022/07/22 00:01:23;;;;;;;6.63;2.58;;;;;;;15.61;81.80;102056.06;5063211;28;20025;-73
2022/07/22 00:03:48;;;;;;;9.07;2.78;;;;;;;15.63;82.07;102058.63;5062378;28;20494;-73
2022/07/22 00:06:13;;;;;;;6.38;2.55;;;;;;;15.59;81.77;102063.13;5056917;28;20017;-73
2022/07/22 00:08:39;;;;;;;4.82;2.30;;;;;;;15.59;81.75;102062.25;5060379;28;20367;-73
2022/07/22 00:11:04;;;;;;;4.20;2.50;;;;;;;15.58;81.74;102056.16;5065385;28;20024;-73
2022/07/22 00:13:30;;;;;;;4.60;2.42;;;;;;;15.54;81.68;102053.66;5065994;28;20081;-74
2022/07/22 00:15:56;;;;;;;6.78;2.83;;;;;;;15.52;81.87;102058.94;5065928;28;20548;-74
2022/07/22 00:18:21;;;;;;;5.35;2.40;;;;;;;15.48;81.71;102068.66;5063501;28;20486;-74
2022/07/22 00:20:47;;;;;;;5.93;2.38;;;;;;;15.46;81.88;102062.56;5065729;28;20063;-73
2022/07/22 00:23:12;;;;;;;4.40;2.17;;;;;;;15.45;81.79;102057.38;5059602;28;20038;-73
2022/07/22 00:25:37;;;;;;;6.07;2.30;;;;;;;15.44;81.85;102055.66;5066003;28;20039;-73
2022/07/22 00:28:03;;;;;;;4.78;2.53;;;;;;;15.43;81.88;102060.06;5058855;28;20076;-74
2022/07/22 00:30:28;;;;;;;4.35;2.08;;;;;;;15.42;82.03;102057.47;5064517;28;20074;-73
2022/07/22 00:32:54;;;;;;;4.57;2.28;;;;;;;15.42;82.11;102044.34;5065298;28;20060;-73
2022/07/22 00:35:19;;;;;;;6.25;2.45;;;;;;;15.40;82.06;102041.78;5056726;28;20368;-74
2022/07/22 00:37:44;;;;;;;5.88;2.55;;;;;;;15.40;81.46;102047.03;5065431;28;20074;-73
2022/07/22 00:40:10;;;;;;;4.93;2.50;;;;;;;15.41;82.17;102053.13;5062043;28;20046;-73
2022/07/22 00:42:35;;;;;;;7.45;2.60;;;;;;;15.41;82.12;102045.25;5063653;28;20111;-73
2022/07/22 00:45:01;;;;;;;6.32;2.53;;;;;;;15.41;82.48;102042.63;5062346;28;20036;-73
2022/07/22 00:47:26;;;;;;;5.50;2.47;;;;;;;15.41;82.09;102045.25;5062161;28;20017;-73
2022/07/22 00:49:51;;;;;;;6.20;2.70;;;;;;;15.41;82.10;102047.88;5062906;28;20434;-73
2022/07/22 00:52:19;;;;;;;6.85;2.53;;;;;;;15.41;82.28;102047.88;5064459;28;20024;-73
2022/07/22 00:54:44;;;;;;;7.72;2.70;;;;;;;15.41;82.29;102047.88;5058871;28;20441;-74
2022/07/22 00:57:09;;;;;;;5.38;2.42;;;;;;;15.43;82.25;102041.69;5065531;28;20024;-74
2022/07/22 00:59:35;;;;;;;5.68;2.40;;;;;;;15.44;82.27;102047.78;5066038;28;20054;-73
2022/07/22 01:02:00;;;;;;;4.78;2.30;;;;;;;15.44;82.23;102042.56;5063248;28;20036;-73
2022/07/22 01:04:25;;;;;;;4.60;2.63;;;;;;;15.46;82.31;102040.75;5056004;28;20395;-74
2022/07/22 01:06:50;;;;;;;5.10;2.72;;;;;;;15.46;82.22;102046.84;5063213;28;20024;-74
2022/07/22 01:09:16;;;;;;;9.18;3.20;;;;;;;15.52;82.05;102047.59;5065541;28;20387;-73
2022/07/22 01:11:41;;;;;;;6.07;2.95;;;;;;;15.52;82.01;102034.47;5068661;28;20073;-73
2022/07/22 01:14:07;;;;;;;5.93;2.88;;;;;;;15.54;81.96;102044.00;5070690;28;21802;-73
2022/07/22 01:16:32;;;;;;;6.93;3.05;;;;;;;15.55;82.01;102040.47;5070195;28;20494;-73
2022/07/22 01:18:57;;;;;;;5.57;2.85;;;;;;;15.57;81.86;102043.94;5065190;28;20430;-73
2022/07/22 01:21:23;;;;;;;4.75;2.70;;;;;;;15.56;81.99;102044.84;5051123;28;20025;-73
2022/07/22 01:23:48;;;;;;;7.72;3.03;;;;;;;15.56;81.86;102030.88;5063872;28;20028;-73
2022/07/22 01:26:14;;;;;;;6.10;2.78;;;;;;;15.59;82.27;102030.78;5071222;28;20503;-74
2022/07/22 01:28:40;;;;;;;5.07;2.60;;;;;;;15.60;81.99;102027.25;5066090;28;20036;-74
2022/07/22 01:31:06;;;;;;;5.45;3.08;;;;;;;15.60;82.07;102028.13;5067694;28;20483;-74
2022/07/22 01:33:31;;;;;;;4.70;2.60;;;;;;;15.62;82.05;102026.31;5067947;28;20020;-74
2022/07/22 01:35:57;;;;;;;4.45;2.67;;;;;;;15.62;81.77;102031.56;5062989;28;20020;-74
2022/07/22 01:38:22;;;;;;;6.03;2.72;;;;;;;15.63;81.63;102028.03;5062491;28;20063;-73
2022/07/22 01:40:48;;;;;;;6.93;2.72;;;;;;;15.61;81.78;102029.00;5063646;28;20049;-73
2022/07/22 01:43:17;;;;;;;5.28;3.03;;;;;;;15.62;81.84;102031.56;5066874;28;20142;-73
2022/07/22 01:45:43;;;;;;;5.05;2.60;;;;;;;15.61;82.73;102029.00;5068600;28;20021;-74
2022/07/22 01:48:08;;;;;;;6.13;2.83;;;;;;;15.60;81.84;102024.66;5068479;28;20325;-73
2022/07/22 01:50:34;;;;;;;6.03;2.88;;;;;;;15.60;81.77;102030.72;5063560;28;20423;-73
2022/07/22 01:52:59;;;;;;;8.60;3.15;;;;;;;15.63;82.23;102030.66;5065792;28;20043;-73
2022/07/22 01:55:25;;;;;;;6.88;2.78;;;;;;;15.65;82.14;102024.50;5063782;28;20394;-73
2022/07/22 01:57:50;;;;;;;5.80;2.70;;;;;;;15.67;82.77;102026.16;5068908;28;20034;-73
2022/07/22 02:00:16;;;;;;;7.57;2.83;;;;;;;15.67;81.97;102026.16;5063409;28;20035;-73
2022/07/22 02:02:41;;;;;;;5.63;2.83;;;;;;;15.67;82.21;102030.56;5065481;28;20456;-74
2022/07/22 02:05:07;;;;;;;7.60;3.10;;;;;;;15.68;82.34;102030.53;5065378;28;20028;-73
2022/07/22 02:07:32;;;;;;;6.80;3.05;;;;;;;15.69;82.31;102032.25;5065184;28;21699;-74
2022/07/22 02:09:57;;;;;;;5.28;3.00;;;;;;;15.72;82.07;102033.91;5062484;28;20111;-74
2022/07/22 02:12:23;;;;;;;8.18;3.05;;;;;;;15.72;82.01;102029.53;5062127;28;20067;-73
2022/07/22 02:14:49;;;;;;;8.02;2.72;;;;;;;15.73;81.52;102023.38;5065325;28;20028;-74
2022/07/22 02:17:14;;;;;;;5.55;2.80;;;;;;;15.73;81.50;102023.38;5069540;28;20107;-73
2022/07/22 02:19:40;;;;;;;6.05;3.08;;;;;;;15.74;81.91;102019.88;5066254;28;20116;-73
2022/07/22 02:22:06;;;;;;;7.20;3.03;;;;;;;15.73;81.17;102023.38;5063192;28;20036;-74
2022/07/22 02:24:31;;;;;;;3.75;2.75;;;;;;;15.73;81.64;102028.63;5066373;28;20102;-73
2022/07/22 02:26:57;;;;;;;4.63;2.55;;;;;;;15.74;81.88;102025.09;5064431;28;20031;-73
2022/07/22 02:29:22;;;;;;;4.95;2.60;;;;;;;15.75;81.85;102028.56;5066080;28;20033;-73
2022/07/22 02:31:47;;;;;;;5.20;2.53;;;;;;;15.74;81.38;102024.22;5064642;28;20110;-73
2022/07/22 02:34:13;;;;;;;5.97;2.75;;;;;;;15.73;82.03;102022.50;5061333;28;20029;-73
2022/07/22 02:36:38;;;;;;;6.03;2.80;;;;;;;15.74;81.98;102029.47;5061676;28;20400;-74
2022/07/22 02:39:04;;;;;;;4.70;2.47;;;;;;;15.73;81.59;102019.88;5068625;28;20028;-73
2022/07/22 02:41:29;;;;;;;6.60;2.90;;;;;;;15.74;81.62;102018.97;5063546;28;20072;-73
2022/07/22 02:43:55;;;;;;;6.10;2.70;;;;;;;15.74;81.44;102024.22;5064750;28;20463;-73
2022/07/22 02:46:22;;;;;;;7.00;2.80;;;;;;;15.73;81.98;102023.38;5061843;28;20103;-73
2022/07/22 02:48:47;;;;;;;7.15;3.00;;;;;;;15.72;81.62;102026.03;5063384;28;20028;-74
2022/07/22 02:51:12;;;;;;;6.82;2.92;;;;;;;15.72;81.72;102020.78;5070008;28;20039;-74
2022/07/22 02:53:38;;;;;;;7.18;2.88;;;;;;;15.72;81.66;102019.03;5067616;28;20052;-74
2022/07/22 02:56:03;;;;;;;7.47;3.08;;;;;;;15.71;81.43;102019.94;5063062;28;20068;-74
2022/07/22 02:58:29;;;;;;;5.40;2.78;;;;;;;15.69;81.43;102027.00;5064474;28;20021;-73
2022/07/22 03:00:54;;;;;;;7.95;3.30;;;;;;;15.67;81.54;102022.72;5068537;28;20024;-73
2022/07/22 03:03:19;;;;;;;5.95;3.10;;;;;;;15.67;81.33;102023.53;5068893;28;20020;-73
2022/07/22 03:05:44;;;;;;;5.43;3.13;;;;;;;15.69;81.78;102023.53;5062239;28;20035;-73
2022/07/22 03:08:11;;;;;;;8.88;3.30;;;;;;;15.70;81.46;102022.63;5066279;28;20021;-73
2022/07/22 03:10:36;;;;;;;6.75;2.92;;;;;;;15.72;81.71;102023.41;5067532;28;20079;-73
2022/07/22 03:13:02;;;;;;;6.38;2.97;;;;;;;15.72;81.74;102015.53;5064728;28;20544;-74
2022/07/22 03:15:27;;;;;;;6.70;2.97;;;;;;;15.72;82.00;102020.78;5060757;28;20036;-73
2022/07/22 03:17:52;;;;;;;6.93;3.20;;;;;;;15.72;81.86;102020.78;5059367;28;20465;-73
2022/07/22 03:20:18;;;;;;;5.88;3.22;;;;;;;15.73;82.21;102015.53;5064104;28;20021;-73
2022/07/22 03:22:43;;;;;;;8.07;3.40;;;;;;;15.74;82.39;102009.38;5061813;28;20032;-73
2022/07/22 03:25:08;;;;;;;7.72;2.85;;;;;;;15.76;82.47;102009.31;5066767;28;20016;-73
2022/07/22 03:27:34;;;;;;;6.57;2.80;;;;;;;15.75;82.57;102010.22;5065411;28;20025;-73
2022/07/22 03:29:59;;;;;;;5.30;2.80;;;;;;;15.74;82.63;102011.13;5065667;28;20029;-73
2022/07/22 03:32:24;;;;;;;7.88;2.90;;;;;;;15.74;82.88;101998.00;5062122;28;20472;-73
2022/07/22 03:34:50;;;;;;;5.47;2.78;;;;;;;15.72;82.91;102000.69;5062768;28;20047;-74
2022/07/22 03:37:15;;;;;;;6.18;3.03;;;;;;;15.69;82.68;101990.25;5061340;28;20455;-74
2022/07/22 03:39:40;;;;;;;6.20;3.38;;;;;;;15.67;82.16;101996.47;5066143;28;20044;-73
2022/07/22 03:42:06;;;;;;;5.47;3.25;;;;;;;15.67;82.05;101997.31;5067831;28;20599;-73
2022/07/22 03:44:31;;;;;;;5.53;2.88;;;;;;;15.67;82.26;101997.31;5065258;28;20024;-73
2022/07/22 03:46:56;;;;;;;5.63;2.92;;;;;;;15.68;82.11;101998.19;5060538;28;20017;-73
2022/07/22 03:49:21;;;;;;;6.47;3.25;;;;;;;15.69;81.83;101999.91;5060901;28;20044;-73
2022/07/22 03:51:47;;;;;;;5.68;3.22;;;;;;;15.69;81.90;101999.91;5066390;28;20360;-73
2022/07/22 03:54:12;;;;;;;8.07;3.20;;;;;;;15.69;82.51;101999.91;5063830;28;20036;-73
2022/07/22 03:56:37;;;;;;;6.47;3.17;;;;;;;15.70;82.47;102004.25;5062183;28;20052;-74
2022/07/22 03:59:03;;;;;;;6.45;3.03;;;;;;;15.72;82.13;102010.28;5066025;28;20029;-73
2022/07/22 04:01:28;;;;;;;7.43;3.05;;;;;;;15.73;82.14;102018.13;5062392;28;20021;-73
2022/07/22 04:03:53;;;;;;;7.30;3.22;;;;;;;15.75;82.39;102011.09;5063011;28;20169;-74
2022/07/22 04:06:19;;;;;;;8.35;3.45;;;;;;;15.75;82.87;102004.97;5063197;28;20017;-73
2022/07/22 04:08:44;;;;;;;7.13;2.97;;;;;;;15.75;82.88;102010.22;5066256;28;20123;-73
2022/07/22 04:11:09;;;;;;;8.85;3.35;;;;;;;15.77;83.17;102014.53;5067543;28;20025;-73
2022/07/22 04:13:35;;;;;;;5.75;3.25;;;;;;;15.76;82.68;102014.56;5060462;28;20036;-73
2022/07/22 04:16:00;;;;;;;8.95;2.97;;;;;;;15.76;81.76;102011.94;5058662;28;20460;-73
2022/07/22 04:18:25;;;;;;;6.03;3.10;;;;;;;15.75;81.50;102020.72;5064340;28;20060;-73
2022/07/22 04:20:50;;;;;;;7.28;3.28;;;;;;;15.75;81.80;102018.97;5065749;28;20115;-73
2022/07/22 04:23:16;;;;;;;7.07;3.60;;;;;;;15.75;81.01;102023.34;5061313;28;20025;-73
2022/07/22 04:25:42;;;;;;;6.63;2.92;;;;;;;15.75;80.92;102016.34;5064065;28;20119;-73
2022/07/22 04:28:07;;;;;;;7.00;3.20;;;;;;;15.76;81.01;102019.81;5042636;28;20032;-73
2022/07/22 04:30:32;;;;;;;7.47;3.25;;;;;;;15.78;81.48;102020.63;5058985;28;20024;-74
2022/07/22 04:32:58;;;;;;;8.77;3.08;;;;;;;15.81;81.15;102019.66;5062011;28;20028;-73
2022/07/22 04:35:24;;;;;;;7.57;3.30;;;;;;;15.82;81.44;102011.78;5060462;28;20058;-73
2022/07/22 04:37:49;;;;;;;9.35;3.42;;;;;;;15.86;80.97;102015.19;5064234;28;20020;-73
2022/07/22 04:40:14;;;;;;;5.72;2.90;;;;;;;15.87;80.92;102012.53;5064611;28;20104;-73
2022/07/22 04:42:39;;;;;;;8.15;3.10;;;;;;;15.90;81.02;102015.03;5064533;28;20020;-73
2022/07/22 04:45:05;;;;;;;6.80;3.13;;;;;;;15.92;80.91;102008.00;5063230;28;20027;-74
2022/07/22 04:47:30;;;;;;;6.07;3.53;;;;;;;15.95;80.59;102012.31;5054218;28;20515;-73
2022/07/22 04:49:56;;;;;;;4.60;3.05;;;;;;;15.94;79.77;102007.97;5062599;28;20032;-74
2022/07/22 04:52:21;;;;;;;8.15;3.22;;;;;;;15.96;80.18;102007.91;5065171;28;20028;-73
2022/07/22 04:54:46;;;;;;;6.13;2.75;;;;;;;15.98;80.01;102011.34;5064413;28;20028;-73
2022/07/22 04:57:12;;;;;;;5.65;3.03;;;;;;;15.98;80.34;102001.69;5058579;28;20028;-73
2022/07/22 04:59:37;;;;;;;6.43;2.92;;;;;;;16.02;80.18;102007.72;5060195;28;20032;-73
2022/07/22 05:02:03;;;;;;;5.80;3.03;;;;;;;16.02;78.97;101998.06;5063227;28;20476;-73
2022/07/22 05:04:28;;;;;;;5.53;2.78;;;;;;;16.04;79.34;102004.16;5060605;28;20016;-73
2022/07/22 05:06:53;;;;;;;6.28;2.72;;;;;;;16.08;80.71;101994.41;5061563;28;20074;-74
2022/07/22 05:09:19;;;;;;;7.57;3.05;;;;;;;16.11;80.11;101999.56;5064696;28;20024;-73
2022/07/22 05:11:44;;;;;;;7.97;3.30;;;;;;;16.13;79.30;101999.53;5062839;28;20033;-73
2022/07/22 05:14:09;;;;;;;5.60;3.08;;;;;;;16.12;78.70;102003.06;5057554;28;20032;-74
2022/07/22 05:16:37;;;;;;;7.97;3.58;;;;;;;16.15;78.01;102002.94;5058900;28;20040;-73
2022/07/22 05:19:03;;;;;;;6.15;3.08;;;;;;;16.16;78.38;102004.66;5052848;28;20260;-74
2022/07/22 05:21:29;;;;;;;7.57;3.30;;;;;;;16.19;78.18;102007.19;5058022;28;20024;-73
2022/07/22 05:23:54;;;;;;;5.05;3.08;;;;;;;16.22;78.36;102005.38;5054650;28;20055;-73
2022/07/22 05:26:19;;;;;;;7.10;3.40;;;;;;;16.26;77.79;102002.63;5056544;28;20033;-74
2022/07/22 05:28:44;;;;;;;7.25;3.20;;;;;;;16.28;77.44;102000.81;5060114;28;20360;-73
2022/07/22 05:31:10;;;;;;;8.23;3.13;;;;;;;16.29;77.91;102000.78;5060581;28;20027;-73
2022/07/22 05:33:35;;;;;;;6.45;3.10;;;;;;;16.31;78.71;102001.56;5057909;28;20088;-73
2022/07/22 05:36:00;;;;;;;8.23;3.72;;;;;;;16.31;77.35;102003.34;5057440;28;20024;-73
2022/07/22 05:38:26;;;;;;;8.85;3.38;;;;;;;16.33;77.68;102001.53;5063932;28;20374;-73
2022/07/22 05:40:51;;;;;;;6.45;2.97;;;;;;;16.36;77.74;102004.06;5057484;28;20516;-74
2022/07/22 05:43:16;;;;;;;7.63;2.97;;;;;;;16.39;77.49;102001.34;5055712;28;20573;-74
2022/07/22 05:45:42;;;;;;;6.15;2.75;;;;;;;16.42;76.60;102003.00;5054503;28;20032;-74
2022/07/22 05:48:07;;;;;;;9.20;3.33;;;;;;;16.45;76.20;102009.00;5053645;28;20052;-74
2022/07/22 05:50:32;;;;;;;5.10;2.72;;;;;;;16.47;76.83;102009.81;5056969;28;20459;-73
2022/07/22 05:52:57;;;;;;;6.60;3.17;;;;;;;16.49;76.73;102013.28;5055865;28;20230;-74
2022/07/22 05:55:23;;;;;;;7.05;2.85;;;;;;;16.50;75.41;102009.75;5058037;28;20043;-74
2022/07/22 05:57:48;;;;;;;6.03;2.50;;;;;;;16.52;76.53;102012.31;5059619;28;20054;-73
2022/07/22 06:00:14;;;;;;;4.85;2.42;;;;;;;16.53;77.37;102004.38;5043061;28;20090;-73
2022/07/22 06:02:39;;;;;;;8.73;2.70;;;;;;;16.58;77.51;102006.00;5058310;28;20491;-73
2022/07/22 06:05:05;;;;;;;6.90;2.90;;;;;;;16.53;75.80;101999.13;5057238;28;20036;-74
2022/07/22 06:07:31;;;;;;;5.90;2.95;;;;;;;16.53;76.17;102004.38;5059544;28;20075;-74
2022/07/22 06:09:56;;;;;;;6.63;2.83;;;;;;;16.59;77.51;102007.72;5059532;28;20044;-74
2022/07/22 06:12:22;;;;;;;7.05;3.03;;;;;;;16.63;76.96;101999.69;5056413;28;20358;-74
2022/07/22 06:14:47;;;;;;;6.57;2.63;;;;;;;16.68;77.43;102008.28;5062296;28;20037;-74
2022/07/22 06:17:13;;;;;;;6.32;2.80;;;;;;;16.70;76.17;102008.25;5064073;28;20032;-73
2022/07/22 06:19:38;;;;;;;5.72;2.38;;;;;;;16.69;75.86;102004.72;5058202;28;20387;-74
2022/07/22 06:22:04;;;;;;;5.57;2.60;;;;;;;16.74;75.80;102012.47;5057693;28;20040;-73
2022/07/22 06:24:29;;;;;;;5.45;2.67;;;;;;;16.78;75.65;102010.63;5057216;28;20399;-74
2022/07/22 06:26:54;;;;;;;5.78;2.63;;;;;;;16.81;75.59;102016.63;5057062;28;20020;-74
2022/07/22 06:29:20;;;;;;;7.40;2.80;;;;;;;16.86;75.84;102012.97;5055294;28;20397;-74
2022/07/22 06:31:45;;;;;;;7.57;2.92;;;;;;;16.89;75.10;102015.50;5060173;28;20053;-73
2022/07/22 06:34:10;;;;;;;3.92;2.30;;;;;;;16.91;74.86;102018.94;5062018;28;20033;-74
2022/07/22 06:36:35;;;;;;;4.65;2.28;;;;;;;16.93;74.81;102022.34;5059046;28;20024;-74
2022/07/22 06:39:01;;;;;;;6.38;2.42;;;;;;;16.95;75.06;102021.44;5062451;28;20033;-74
2022/07/22 06:41:27;;;;;;;4.95;2.28;;;;;;;17.01;74.55;102015.13;5064156;28;20052;-74
2022/07/22 06:43:52;;;;;;;4.95;2.35;;;;;;;17.04;73.83;102020.28;5056828;28;20467;-74
2022/07/22 06:46:17;;;;;;;5.40;2.30;;;;;;;17.07;72.98;102022.81;5059405;28;20017;-74
2022/07/22 06:48:43;;;;;;;7.57;2.50;;;;;;;17.11;74.78;102011.25;5057649;28;20059;-74
2022/07/22 06:51:08;;;;;;;5.25;2.30;;;;;;;17.18;75.06;102009.25;5060155;28;20062;-74
2022/07/22 06:53:34;;;;;;;4.32;2.20;;;;;;;17.23;74.53;102014.38;5058141;28;20116;-73
2022/07/22 06:55:59;;;;;;;6.00;2.55;;;;;;;17.26;73.00;102011.63;5062421;28;20239;-74
2022/07/22 06:58:24;;;;;;;4.93;2.40;;;;;;;17.27;73.85;102011.59;5061180;28;20047;-74
2022/07/22 07:00:49;;;;;;;4.65;2.05;;;;;;;17.31;73.34;102011.50;5058499;28;20025;-73
2022/07/22 07:03:15;;;;;;;5.65;2.45;;;;;;;17.33;71.40;102014.94;5060261;28;20082;-74
2022/07/22 07:05:40;;;;;;;5.57;2.20;;;;;;;17.37;71.25;102006.88;5055222;28;20100;-74
2022/07/22 07:08:06;;;;;;;5.95;2.67;;;;;;;17.42;71.63;102018.06;5057457;28;20059;-74
2022/07/22 07:10:31;;;;;;;4.70;2.20;;;;;;;17.48;71.91;102013.50;5058475;28;20037;-74
2022/07/22 07:12:57;;;;;;;4.78;2.20;;;;;;;17.53;72.37;102015.03;5060627;28;20028;-74
2022/07/22 07:15:26;;;;;;;3.20;2.08;;;;;;;17.57;72.02;102013.19;5063928;28;20033;-74
2022/07/22 07:17:52;;;;;;;6.50;2.08;;;;;;;17.59;69.60;102013.97;5035531;28;20499;-74
2022/07/22 07:20:18;;;;;;;5.93;2.30;;;;;;;17.63;71.44;102006.81;5064799;28;20043;-73
2022/07/22 07:22:43;;;;;;;4.70;2.03;;;;;;;17.69;70.69;102012.72;5060242;28;20028;-74
2022/07/22 07:25:09;;;;;;;6.57;2.47;;;;;;;17.73;69.93;102006.44;5055305;28;20435;-74
2022/07/22 07:27:36;;;;;;;3.72;2.15;;;;;;;17.74;68.52;102000.25;5063628;28;20028;-74
2022/07/22 07:30:01;;;;;;;6.15;2.15;;;;;;;17.77;70.07;101993.13;5064338;28;20071;-74
2022/07/22 07:32:26;;;;;;;4.18;2.15;;;;;;;17.80;68.26;101993.03;5059062;28;20025;-74
2022/07/22 07:34:52;;;;;;;9.48;2.70;;;;;;;17.85;68.21;101999.81;5068486;28;20024;-74
2022/07/22 07:37:17;;;;;;;4.38;1.90;;;;;;;17.96;70.68;101993.31;5066284;28;20031;-74
2022/07/22 07:39:42;;;;;;;4.13;1.80;;;;;;;18.09;71.56;101993.72;5068295;28;20054;-74
2022/07/22 07:42:08;;;;;;;6.85;2.35;;;;;;;18.16;67.78;101990.78;5061935;28;20036;-73
2022/07/22 07:44:33;;;;;;;5.00;2.30;;;;;;;18.22;68.85;101994.97;5065407;28;20395;-74
2022/07/22 07:46:58;;;;;;;3.10;1.70;;;;;;;18.31;69.76;101997.22;5068805;28;20028;-73
2022/07/22 07:49:23;;;;;;;3.10;1.45;;;;;;;18.37;67.31;101996.09;5065596;28;20028;-73
2022/07/22 07:51:49;;;;;;;2.25;1.30;;;;;;;18.41;65.94;102000.34;5057799;28;20089;-74
2022/07/22 07:54:14;;;;;;;2.88;1.10;;;;;;;18.45;66.19;101995.78;5059300;28;20028;-74
2022/07/22 07:56:40;;;;;;;2.70;1.10;;;;;;;18.48;65.46;101995.66;5064301;28;21765;-74
2022/07/22 07:59:05;;;;;;;3.53;1.17;;;;;;;18.49;64.86;101993.00;5061950;28;20036;-73
2022/07/22 08:01:30;;;;;;;3.05;1.00;;;;;;;18.50;66.16;101993.84;5060698;28;20090;-74
2022/07/22 08:03:56;;;;;;;2.15;0.90;;;;;;;18.46;62.68;101997.50;5061597;28;20043;-74
2022/07/22 08:06:21;;;;;;;4.93;1.08;;;;;;;18.42;62.67;101991.50;5059772;28;20013;-74
2022/07/22 08:08:46;;;;;;;2.35;0.90;;;;;;;18.41;64.94;101997.69;5057270;28;20032;-74
2022/07/22 08:11:12;;;;;;;2.60;1.00;;;;;;;18.39;61.82;102002.16;5057600;28;20032;-74
2022/07/22 08:13:37;;;;;;;1.73;1.10;;;;;;;18.40;66.85;101992.50;5061936;28;20028;-74
2022/07/22 08:16:03;;;;;;;2.38;1.00;;;;;;;18.41;65.89;102002.13;5059776;28;20147;-74
2022/07/22 08:18:29;;;;;;;4.13;1.10;;;;;;;18.42;65.64;101998.56;5056152;28;20111;-73
2022/07/22 08:20:55;;;;;;;2.95;0.93;;;;;;;18.42;65.84;101995.94;5054726;28;20119;-74
2022/07/22 08:23:20;;;;;;;3.35;1.10;;;;;;;18.40;63.70;101992.50;5060135;28;20042;-73
2022/07/22 08:25:46;;;;;;;2.40;1.00;;;;;;;18.38;64.82;101992.56;5059030;28;20703;-73
2022/07/22 08:28:11;;;;;;;3.05;1.30;;;;;;;18.40;64.60;101998.63;5060467;28;20153;-73
2022/07/22 08:30:36;;;;;;;2.80;1.00;;;;;;;18.40;65.36;101987.25;5053491;28;20025;-74
2022/07/22 08:33:02;;;;;;;2.33;1.10;;;;;;;18.41;63.69;101988.94;5038721;28;20052;-74
2022/07/22 08:35:27;;;;;;;3.15;1.30;;;;;;;18.43;64.56;101992.38;5060726;28;20107;-73
2022/07/22 08:37:53;;;;;;;1.85;1.08;;;;;;;18.44;65.64;101988.84;5057522;28;20037;-73
2022/07/22 08:40:19;;;;;;;2.42;1.08;;;;;;;18.52;65.46;101991.16;5056888;28;20028;-74
2022/07/22 08:42:46;;;;;;;5.03;1.17;;;;;;;18.56;61.82;101993.59;5059622;28;20029;-74
2022/07/22 08:45:12;;;;;;;2.65;1.00;;;;;;;18.62;60.49;101995.97;5060133;28;20028;-74
2022/07/22 08:47:37;;;;;;;1.50;1.00;;;;;;;18.73;63.76;101994.69;5058982;28;20016;-73
2022/07/22 08:50:03;;;;;;;2.95;0.95;;;;;;;18.80;62.98;101982.94;5058564;28;20431;-74
2022/07/22 08:52:29;;;;;;;2.50;0.93;;;;;;;18.86;61.98;101977.41;5056714;28;20028;-74
2022/07/22 08:54:55;;;;;;;2.13;0.90;;;;;;;18.93;61.41;101976.22;5060950;28;20104;-74
2022/07/22 08:57:20;;;;;;;3.25;1.10;;;;;;;19.02;60.52;101964.47;5060118;28;20124;-74
2022/07/22 08:59:54;;;;;;;2.08;0.90;;;;;;;19.15;62.19;101975.31;5063114;28;20070;-74
2022/07/22 09:02:20;;;;;;;1.95;0.90;;;;;;;19.25;58.39;101975.75;5058718;28;20040;-74
2022/07/22 09:05:02;;;;;;;2.53;1.05;;;;;;;19.36;61.24;101968.25;5059076;28;20025;-74
2022/07/22 09:07:28;;;;;;;2.40;0.90;;;;;;;19.45;58.59;101972.25;5040711;28;20031;-74
2022/07/22 09:09:54;;;;;;;2.05;0.80;;;;;;;19.54;59.87;101974.47;5062112;28;20112;-74
2022/07/22 09:12:22;;;;;;;2.90;1.00;;;;;;;19.61;55.85;101988.22;5058750;28;20365;-74
2022/07/22 09:14:49;;;;;;;3.88;1.25;;;;;;;19.61;54.16;101987.38;5056888;28;20032;-74
2022/07/22 09:17:26;;;;;;;2.40;1.00;;;;;;;19.59;57.61;101983.97;5058297;28;20195;-74
2022/07/22 09:19:52;;;;;;;2.88;1.10;;;;;;;19.55;57.09;101984.09;5061516;28;20060;-74
2022/07/22 09:22:33;;;;;;;3.05;1.10;;;;;;;19.52;57.81;101984.22;5063350;28;20061;-74
2022/07/22 09:25:18;;;;;;;2.95;1.00;;;;;;;19.53;57.82;101977.19;5059811;28;20033;-74
2022/07/22 09:27:43;;;;;;;2.17;1.08;;;;;;;19.55;60.17;101962.97;5059949;28;20098;-74
2022/07/22 09:30:13;;;;;;;2.85;1.27;;;;;;;19.52;60.52;101973.66;5065410;28;20067;-74
2022/07/22 09:32:41;;;;;;;2.00;1.13;;;;;;;19.50;59.61;101970.25;5061542;28;20467;-74
2022/07/22 09:35:07;;;;;;;2.05;1.13;;;;;;;19.49;58.89;101967.69;5061008;28;20534;-74
2022/07/22 09:37:33;;;;;;;1.92;1.05;;;;;;;19.49;61.21;101965.03;5059598;28;20089;-74
2022/07/22 09:40:22;;;;;;;2.70;1.20;;;;;;;19.43;58.16;101968.81;5061011;28;20032;-74
2022/07/22 09:42:55;;;;;;;3.55;1.30;;;;;;;19.44;60.44;101970.53;5061308;28;20037;-74
2022/07/22 09:45:22;;;;;;;3.10;1.10;;;;;;;19.44;57.40;101964.38;5063341;28;20070;-74
2022/07/22 09:47:49;;;;;;;2.63;1.10;;;;;;;19.48;57.62;101961.53;5064272;28;20033;-74
2022/07/22 09:50:21;;;;;;;2.75;1.13;;;;;;;19.49;57.51;101957.97;5061791;28;20076;-74
2022/07/22 09:52:48;;;;;;;2.92;0.95;;;;;;;19.53;59.21;101954.28;5061851;28;20075;-74
2022/07/22 09:55:15;;;;;;;2.33;1.10;;;;;;;19.59;60.50;101947.00;5063035;28;20017;-74
2022/07/22 09:57:42;;;;;;;2.22;1.27;;;;;;;19.64;59.69;101951.13;5062969;28;20507;-74
2022/07/22 10:00:09;;;;;;;3.78;1.40;;;;;;;19.71;55.98;101951.69;5062106;28;20084;-74
2022/07/22 10:02:41;;;;;;;2.28;1.30;;;;;;;19.78;53.36;101947.88;5063769;28;20385;-74
2022/07/22 10:05:10;;;;;;;2.88;1.25;;;;;;;19.88;53.10;101950.09;5058580;28;20048;-74
2022/07/22 10:07:36;;;;;;;2.35;1.10;;;;;;;20.00;57.40;101945.09;5059795;28;20043;-77
2022/07/22 10:10:02;;;;;;;2.25;1.27;;;;;;;20.03;53.90;101952.00;5059960;28;20032;-75
2022/07/22 10:12:30;;;;;;;3.58;1.27;;;;;;;20.09;52.90;101948.19;5040947;28;20509;-74
2022/07/22 10:14:55;;;;;;;2.63;1.20;;;;;;;20.13;54.26;101952.41;5059759;28;20483;-74
2022/07/22 10:17:21;;;;;;;3.22;1.10;;;;;;;20.06;51.81;101953.66;5062283;28;20063;-74
2022/07/22 10:19:47;;;;;;;2.60;1.00;;;;;;;20.02;52.64;101964.34;5059026;28;20115;-74
2022/07/22 10:22:41;;;;;;;3.50;1.35;;;;;;;20.01;56.41;101970.56;5059950;28;20033;-74
2022/07/22 10:25:08;;;;;;;3.00;1.27;;;;;;;19.98;54.39;101964.59;5059600;28;20038;-75
2022/07/22 10:27:55;;;;;;;3.10;1.10;;;;;;;19.88;55.74;101953.59;5059233;28;20025;-74
2022/07/22 10:30:29;;;;;;;2.05;1.20;;;;;;;19.91;57.97;101956.06;5056817;28;20534;-74
2022/07/22 10:33:14;;;;;;;2.28;1.20;;;;;;;19.96;56.22;101961.16;5059629;28;20061;-74
2022/07/22 10:35:42;;;;;;;4.28;1.38;;;;;;;19.95;53.64;101964.72;5058832;28;20115;-74
2022/07/22 10:38:08;;;;;;;2.88;1.40;;;;;;;19.93;53.66;101966.56;5062535;28;20085;-75
2022/07/22 10:40:49;;;;;;;1.67;1.08;;;;;;;19.96;54.52;101963.78;5060638;28;20490;-74
2022/07/22 10:43:16;;;;;;;2.67;1.40;;;;;;;20.03;52.72;101957.28;5063779;28;20690;-75
2022/07/22 10:45:48;;;;;;;3.03;1.23;;;;;;;20.13;54.65;101948.00;5063917;28;20025;-74
2022/07/22 10:48:16;;;;;;;2.83;1.00;;;;;;;20.25;55.23;101950.97;5063849;28;20016;-74
2022/07/22 10:50:49;;;;;;;4.05;1.20;;;;;;;20.36;56.66;101953.91;5062428;28;20541;-74
2022/07/22 10:53:21;;;;;;;5.03;1.33;;;;;;;20.51;54.36;101951.44;5058519;28;20071;-75
2022/07/22 10:56:04;;;;;;;3.53;1.35;;;;;;;20.62;55.84;101942.03;5064163;28;20143;-74
2022/07/22 10:58:32;;;;;;;2.75;1.25;;;;;;;20.71;53.85;101956.56;5062381;28;21820;-74
2022/07/22 11:01:09;;;;;;;3.60;1.45;;;;;;;20.77;54.21;101942.22;5057292;28;20054;-74
2022/07/22 11:03:37;;;;;;;2.50;1.33;;;;;;;20.75;53.54;101944.94;5055062;28;20063;-74
2022/07/22 11:06:15;;;;;;;2.22;1.42;;;;;;;20.67;52.93;101936.50;5057774;28;20486;-74
2022/07/22 11:08:41;;;;;;;2.95;1.10;;;;;;;20.61;56.13;101939.47;5061880;28;20380;-74
2022/07/22 11:11:07;;;;;;;2.10;1.10;;;;;;;20.52;56.71;101934.63;5054459;28;20029;-75
2022/07/22 11:13:34;;;;;;;2.75;1.00;;;;;;;20.44;56.55;101925.31;5055955;28;20112;-74
2022/07/22 11:16:15;;;;;;;3.58;1.50;;;;;;;20.35;54.53;101925.78;5042811;28;20044;-75
2022/07/22 11:18:47;;;;;;;;;;;;;;;20.35;56.30;101939.00;5061118;28;20459;-75
2022/07/22 11:21:15;;;;;;;2.63;1.42;;;;;;;20.31;55.01;101929.53;5058974;28;20304;-74